Time;durP1;ratioP1;P1;durP2;ratioP2;P2;SDS_P1;SDS_P2;PMS_P1;PMS_P2;Temp;Humidity;BMP_temperature;BMP_pressure;BME280_temperature;BME280_humidity;BME280_pressure;Samples;Min_cycle;Max_cycle;Signal;HPM_P1;HPM_P2
2023/11/23 00:00:19;;;;;;;9.88;6.28;;;;;;;25.39;36.29;100540.78;4346678;33;34606;-59
2023/11/23 00:02:47;;;;;;;8.77;5.53;;;;;;;25.35;36.33;100545.84;4346676;33;34355;-60
2023/11/23 00:05:14;;;;;;;10.50;6.18;;;;;;;25.34;36.51;100546.91;4346758;33;34066;-60
2023/11/23 00:07:42;;;;;;;12.23;6.00;;;;;;;25.32;36.59;100554.50;4346538;33;34123;-61
2023/11/23 00:10:10;;;;;;;8.60;5.68;;;;;;;25.31;36.60;100554.69;4346921;33;34124;-59
2023/11/23 00:12:40;;;;;;;16.48;6.35;;;;;;;25.29;36.73;100570.47;4346701;33;34797;-59
2023/11/23 00:15:08;;;;;;;;;;;;;;;25.28;36.69;100577.00;4346779;33;33822;-58
2023/11/23 00:17:36;;;;;;;11.02;6.10;;;;;;;25.36;36.52;100563.06;4346943;33;34389;-57
2023/11/23 00:20:09;;;;;;;10.40;5.85;;;;;;;25.26;36.64;100560.81;4346427;33;34805;-57
2023/11/23 00:22:36;;;;;;;13.32;7.25;;;;;;;25.22;36.84;100556.84;4346648;33;34302;-57
2023/11/23 00:25:04;;;;;;;8.65;5.32;;;;;;;25.22;36.93;100539.63;4346616;33;33669;-60
2023/11/23 00:27:34;;;;;;;8.25;5.80;;;;;;;25.19;36.98;100541.75;4346548;33;34184;-60
2023/11/23 00:30:02;;;;;;;8.65;5.78;;;;;;;25.17;37.07;100546.59;4346277;33;33942;-60
2023/11/23 00:32:32;;;;;;;10.30;5.82;;;;;;;25.16;37.17;100542.19;4346391;33;34033;-60
2023/11/23 00:34:59;;;;;;;12.27;6.82;;;;;;;25.14;37.40;100544.31;4346689;33;33499;-60
2023/11/23 00:37:28;;;;;;;7.80;5.55;;;;;;;25.13;37.49;100550.84;4346254;33;34418;-59
2023/11/23 00:39:56;;;;;;;11.27;5.85;;;;;;;25.12;37.48;100551.88;4346712;33;34116;-60
2023/11/23 00:42:24;;;;;;;12.95;6.32;;;;;;;25.11;37.48;100543.91;4346145;33;34047;-59
2023/11/23 00:44:52;;;;;;;10.43;5.82;;;;;;;25.10;37.53;100540.34;4345893;33;33415;-57
2023/11/23 00:47:20;;;;;;;9.63;6.12;;;;;;;25.08;37.59;100531.50;4346118;33;34957;-59
2023/11/23 00:49:47;;;;;;;10.45;6.12;;;;;;;25.08;37.58;100538.87;4346308;33;33980;-60
2023/11/23 00:52:16;;;;;;;11.60;6.18;;;;;;;25.05;37.57;100545.59;4346198;33;35044;-58
2023/11/23 00:54:43;;;;;;;12.60;6.10;;;;;;;25.05;37.55;100540.12;4346192;33;33380;-60
2023/11/23 00:57:11;;;;;;;11.02;5.93;;;;;;;25.02;37.55;100540.56;4346254;33;34059;-59
2023/11/23 00:59:39;;;;;;;11.70;5.57;;;;;;;25.02;37.54;100539.72;4348001;33;34043;-60
2023/11/23 01:02:07;;;;;;;9.38;5.78;;;;;;;25.00;37.56;100533.66;4348051;33;33779;-60
2023/11/23 01:04:37;;;;;;;10.05;5.37;;;;;;;24.99;37.54;100531.97;4347966;33;34456;-60
2023/11/23 01:07:05;;;;;;;10.63;5.80;;;;;;;24.98;37.62;100541.22;4348019;33;34909;-56
2023/11/23 01:09:32;;;;;;;12.48;5.70;;;;;;;24.97;37.58;100534.09;4347983;33;34960;-60
2023/11/23 01:12:01;;;;;;;10.88;5.82;;;;;;;24.95;37.70;100528.87;4347694;33;34932;-60
2023/11/23 01:14:28;;;;;;;17.55;10.95;;;;;;;24.93;37.78;100523.59;4347990;33;34688;-60
2023/11/23 01:16:56;;;;;;;13.88;9.23;;;;;;;24.94;32.26;100517.06;4347988;33;34838;-58
2023/11/23 01:19:23;;;;;;;13.52;7.78;;;;;;;24.85;32.71;100512.09;4347794;33;34152;-60
2023/11/23 01:21:52;;;;;;;9.98;7.00;;;;;;;24.79;33.35;100511.09;4347950;33;34168;-59
2023/11/23 01:24:19;;;;;;;9.45;6.68;;;;;;;24.77;35.14;100509.66;4347897;33;34487;-59
2023/11/23 01:26:47;;;;;;;11.18;7.37;;;;;;;24.74;35.55;100499.16;4347704;33;34898;-58
2023/11/23 01:29:15;;;;;;;12.77;7.35;;;;;;;24.72;35.67;100509.47;4347870;33;34919;-58
2023/11/23 01:31:42;;;;;;;12.75;7.28;;;;;;;24.71;35.72;100518.69;4347720;33;34884;-60
2023/11/23 01:34:09;;;;;;;12.40;6.85;;;;;;;24.69;35.74;100524.38;4347707;33;33585;-60
2023/11/23 01:36:37;;;;;;;11.77;6.57;;;;;;;24.67;35.76;100521.87;4347837;33;33733;-60
2023/11/23 01:39:07;;;;;;;12.48;7.35;;;;;;;24.67;35.86;100523.75;4347786;33;33997;-60
2023/11/23 01:41:34;;;;;;;12.00;7.28;;;;;;;24.66;35.98;100530.25;4347729;33;33847;-59
2023/11/23 01:44:02;;;;;;;10.50;6.75;;;;;;;24.65;36.09;100517.66;4333640;33;33692;-60
2023/11/23 01:46:30;;;;;;;9.10;5.75;;;;;;;24.65;36.19;100529.41;4332872;33;34154;-58
2023/11/23 01:48:58;;;;;;;13.32;6.22;;;;;;;24.64;36.27;100532.37;4333088;33;34081;-57
2023/11/23 01:51:26;;;;;;;10.38;6.30;;;;;;;24.63;36.41;100528.81;4319785;33;35068;-59
2023/11/23 01:53:54;;;;;;;13.07;6.90;;;;;;;24.62;36.45;100523.56;4333020;33;33704;-60
2023/11/23 01:56:21;;;;;;;10.18;6.37;;;;;;;24.62;36.67;100527.16;4332904;33;33705;-57
2023/11/23 01:58:49;;;;;;;9.52;6.68;;;;;;;24.62;36.62;100523.56;4319321;33;34071;-60
2023/11/23 02:01:17;;;;;;;12.75;6.32;;;;;;;24.60;36.66;100526.50;4332873;33;35013;-60
2023/11/23 02:03:45;;;;;;;12.68;6.80;;;;;;;24.59;36.74;100519.38;4332888;33;34399;-57
2023/11/23 02:06:12;;;;;;;12.40;6.93;;;;;;;24.58;36.81;100523.16;4319595;33;34573;-59
2023/11/23 02:08:40;;;;;;;10.32;6.22;;;;;;;24.59;36.88;100526.72;4332752;33;34985;-59
2023/11/23 02:11:09;;;;;;;10.70;6.47;;;;;;;24.58;36.95;100520.44;4319682;33;35086;-59
2023/11/23 02:13:37;;;;;;;10.45;6.55;;;;;;;24.57;36.93;100510.56;4319613;33;33484;-59
2023/11/23 02:16:06;;;;;;;10.65;6.55;;;;;;;24.57;36.98;100509.72;4332699;33;34062;-60
2023/11/23 02:18:37;;;;;;;9.40;6.05;;;;;;;24.56;37.08;100506.16;4332865;33;33947;-60
2023/11/23 02:21:09;;;;;;;9.60;5.87;;;;;;;24.55;37.15;100511.84;4332729;33;35010;-60
2023/11/23 02:23:37;;;;;;;10.35;5.55;;;;;;;24.54;37.19;100499.25;4332718;33;33824;-59
2023/11/23 02:26:05;;;;;;;9.90;5.78;;;;;;;24.53;37.24;100500.28;4332790;33;34661;-60
2023/11/23 02:28:33;;;;;;;7.65;5.35;;;;;;;24.52;37.26;100496.72;4332719;33;34841;-59
2023/11/23 02:31:02;;;;;;;8.55;5.40;;;;;;;24.51;37.22;100503.25;4332715;33;34072;-59
2023/11/23 02:33:31;;;;;;;9.35;5.50;;;;;;;24.50;37.37;100498.03;4332614;33;33891;-60
2023/11/23 02:35:59;;;;;;;15.18;5.75;;;;;;;24.49;37.42;100502.66;4332718;33;34037;-59
2023/11/23 02:38:27;;;;;;;11.00;5.97;;;;;;;24.49;37.38;100504.53;4332626;33;33883;-57
2023/11/23 02:40:54;;;;;;;10.57;6.12;;;;;;;24.48;37.36;100494.66;4332654;33;34017;-59
2023/11/23 02:43:22;;;;;;;7.68;5.60;;;;;;;24.47;37.40;100491.09;4342430;33;33446;-59
2023/11/23 02:45:49;;;;;;;7.18;5.30;;;;;;;24.48;37.48;100489.19;4347111;33;34426;-59
2023/11/23 02:48:17;;;;;;;7.78;5.70;;;;;;;24.48;37.48;100486.47;4347696;33;34223;-59
2023/11/23 02:50:45;;;;;;;8.82;6.07;;;;;;;24.47;37.59;100488.37;4347304;33;34258;-59
2023/11/23 02:53:27;;;;;;;6.90;5.20;;;;;;;24.46;37.59;100497.59;4347311;33;34170;-58
2023/11/23 02:55:55;;;;;;;12.48;6.10;;;;;;;24.45;37.50;100484.19;4347276;33;34151;-60
2023/11/23 02:58:24;;;;;;;8.02;5.40;;;;;;;24.46;37.70;100488.59;4347107;33;34889;-59
2023/11/23 03:00:51;;;;;;;8.10;5.65;;;;;;;24.43;37.72;100479.81;4347351;33;34232;-59
2023/11/23 03:03:19;;;;;;;12.10;5.82;;;;;;;24.44;37.63;100477.91;4347287;33;34376;-60
2023/11/23 03:05:47;;;;;;;9.50;5.85;;;;;;;24.43;37.66;100473.47;4347091;33;34827;-59
2023/11/23 03:08:15;;;;;;;12.00;5.93;;;;;;;24.41;37.72;100461.97;4347286;33;33888;-59
2023/11/23 03:10:44;;;;;;;8.45;5.07;;;;;;;24.40;37.67;100463.03;4347207;33;34920;-59
2023/11/23 03:13:12;;;;;;;11.00;5.30;;;;;;;24.39;37.69;100459.47;4347153;33;32991;-58
2023/11/23 03:15:39;;;;;;;10.63;5.35;;;;;;;24.39;37.75;100458.63;4347244;33;34450;-58
2023/11/23 03:18:07;;;;;;;10.30;6.20;;;;;;;24.39;37.74;100455.91;4347212;33;34858;-60
2023/11/23 03:20:39;;;;;;;9.07;5.20;;;;;;;24.38;37.72;100462.38;4346637;33;34017;-60
2023/11/23 03:23:07;;;;;;;13.98;5.57;;;;;;;24.37;37.75;100458.81;4347213;33;33658;-57
2023/11/23 03:25:35;;;;;;;8.68;4.97;;;;;;;24.36;37.82;100448.13;4346921;33;34286;-60
2023/11/23 03:28:04;;;;;;;9.93;5.28;;;;;;;24.35;37.80;100443.72;4347314;33;33828;-60
2023/11/23 03:30:32;;;;;;;10.33;5.30;;;;;;;24.36;37.80;100450.84;4347065;33;34310;-60
2023/11/23 03:33:00;;;;;;;7.32;4.85;;;;;;;24.35;37.77;100439.09;4346866;33;34577;-59
2023/11/23 03:35:28;;;;;;;8.50;5.47;;;;;;;24.33;37.86;100434.91;4347101;33;34175;-59
2023/11/23 03:37:55;;;;;;;13.00;4.87;;;;;;;24.33;37.90;100451.25;4347012;33;33929;-59
2023/11/23 03:40:23;;;;;;;9.75;5.18;;;;;;;24.34;38.05;100444.75;4346776;33;35009;-59
2023/11/23 03:42:50;;;;;;;7.62;5.00;;;;;;;24.33;37.98;100437.63;4340186;33;33512;-60
2023/11/23 03:45:18;;;;;;;11.52;5.65;;;;;;;24.32;38.03;100431.34;4332102;33;34903;-59
2023/11/23 03:47:47;;;;;;;8.23;5.32;;;;;;;24.31;37.97;100435.12;4332087;33;34808;-60
2023/11/23 03:50:17;;;;;;;9.32;5.40;;;;;;;24.31;37.99;100431.56;4332104;33;34138;-60
2023/11/23 03:52:44;;;;;;;9.65;5.53;;;;;;;24.29;38.08;100434.50;4332031;33;34515;-57
2023/11/23 03:55:13;;;;;;;7.20;5.00;;;;;;;24.29;38.09;100434.50;4331994;33;34050;-59
2023/11/23 03:57:40;;;;;;;8.38;5.15;;;;;;;24.29;38.07;100442.66;4332417;33;34061;-59
2023/11/23 04:00:08;;;;;;;6.97;5.22;;;;;;;24.28;38.08;100441.00;4332159;33;33950;-59
2023/11/23 04:02:36;;;;;;;7.78;5.43;;;;;;;24.28;38.08;100434.72;4332291;33;33626;-58
2023/11/23 04:05:04;;;;;;;8.25;5.07;;;;;;;24.28;38.08;100445.62;4332036;33;33515;-59
2023/11/23 04:07:34;;;;;;;6.68;4.62;;;;;;;24.27;38.12;100441.22;4332334;33;34058;-59
2023/11/23 04:10:03;;;;;;;9.15;5.37;;;;;;;24.27;38.00;100449.41;4331935;33;34833;-59
2023/11/23 04:12:31;;;;;;;8.32;5.00;;;;;;;24.27;38.10;100450.25;4331964;33;34437;-59
2023/11/23 04:14:58;;;;;;;7.40;4.70;;;;;;;24.26;38.07;100448.56;4331960;33;33691;-60
2023/11/23 04:17:26;;;;;;;13.70;4.70;;;;;;;24.25;38.09;100457.81;4331998;33;33852;-59
2023/11/23 04:19:54;;;;;;;9.63;4.82;;;;;;;24.25;38.04;100454.22;4331908;33;34325;-59
2023/11/23 04:22:22;;;;;;;10.95;5.57;;;;;;;24.25;38.10;100460.53;4331805;33;33683;-60
2023/11/23 04:24:50;;;;;;;7.15;4.70;;;;;;;24.23;38.16;100470.81;4331863;33;34796;-59
2023/11/23 04:27:18;;;;;;;12.30;5.20;;;;;;;24.23;38.18;100464.53;4332150;33;34214;-59
2023/11/23 04:29:47;;;;;;;7.93;5.22;;;;;;;24.22;38.19;100463.69;4331637;33;34057;-59
2023/11/23 04:32:15;;;;;;;7.80;5.07;;;;;;;24.22;38.12;100463.69;4330481;33;34409;-60
2023/11/23 04:34:43;;;;;;;12.43;5.53;;;;;;;24.22;38.19;100455.50;4331766;33;33755;-58
2023/11/23 04:37:10;;;;;;;7.87;4.70;;;;;;;24.21;38.29;100464.75;4331591;33;34141;-58
2023/11/23 04:39:38;;;;;;;10.43;5.22;;;;;;;24.19;38.29;100462.22;4331681;33;33874;-59
2023/11/23 04:42:07;;;;;;;8.07;5.07;;;;;;;24.18;38.28;100466.00;4333939;33;33989;-58
2023/11/23 04:44:34;;;;;;;7.22;4.55;;;;;;;24.18;38.23;100462.44;4345976;33;34843;-60
2023/11/23 04:47:03;;;;;;;7.95;5.12;;;;;;;24.18;38.28;100470.63;4346027;33;33891;-61
2023/11/23 04:49:32;;;;;;;7.90;5.03;;;;;;;24.17;38.26;100463.50;4346300;33;34939;-58
2023/11/23 04:52:00;;;;;;;8.90;4.47;;;;;;;24.15;38.32;100466.47;4346117;33;34046;-58
2023/11/23 04:54:27;;;;;;;8.07;4.87;;;;;;;24.17;38.31;100464.34;4346228;33;33802;-59
2023/11/23 04:56:55;;;;;;;8.02;5.30;;;;;;;24.15;38.28;100471.03;4346121;33;33809;-60
2023/11/23 04:59:22;;;;;;;7.70;5.15;;;;;;;24.14;38.37;100475.66;4346142;33;33846;-59
2023/11/23 05:01:50;;;;;;;11.00;5.68;;;;;;;24.13;38.41;100475.88;4346107;33;33966;-60
2023/11/23 05:04:18;;;;;;;10.50;4.85;;;;;;;24.14;38.42;100469.38;4346319;33;34153;-59
2023/11/23 05:06:45;;;;;;;8.93;5.30;;;;;;;24.12;38.41;100475.06;4346076;33;34034;-57
2023/11/23 05:09:13;;;;;;;9.98;5.05;;;;;;;24.12;38.29;100471.50;4346059;33;34179;-59
2023/11/23 05:11:41;;;;;;;9.02;4.95;;;;;;;24.12;38.44;100469.59;4346090;33;33603;-60
2023/11/23 05:14:08;;;;;;;8.23;5.10;;;;;;;24.12;38.51;100477.78;4346088;33;33954;-57
2023/11/23 05:16:36;;;;;;;8.52;5.07;;;;;;;24.11;38.46;100481.56;4345797;33;34153;-59
2023/11/23 05:19:04;;;;;;;8.43;4.82;;;;;;;24.10;38.48;100479.88;4345829;33;35042;-60
2023/11/23 05:21:32;;;;;;;10.57;4.93;;;;;;;24.10;38.49;100484.50;4345696;33;34432;-58
2023/11/23 05:24:00;;;;;;;8.25;4.70;;;;;;;24.08;38.50;100484.72;4346104;33;34025;-60
2023/11/23 05:26:31;;;;;;;10.55;4.60;;;;;;;24.09;38.61;100489.09;4345708;33;34157;-60
2023/11/23 05:28:58;;;;;;;9.07;4.72;;;;;;;24.09;38.57;100494.56;4331889;33;35532;-56
2023/11/23 05:31:26;;;;;;;7.03;4.40;;;;;;;24.08;38.51;100487.44;4345705;33;33862;-60
2023/11/23 05:33:53;;;;;;;9.23;4.80;;;;;;;24.07;38.50;100483.03;4345565;33;34038;-61
2023/11/23 05:36:21;;;;;;;7.90;5.30;;;;;;;24.08;38.53;100476.53;4345564;33;33767;-63
2023/11/23 05:38:49;;;;;;;13.55;5.45;;;;;;;24.07;38.37;100472.13;4345468;33;34992;-62
2023/11/23 05:41:17;;;;;;;10.43;5.75;;;;;;;24.07;38.84;100474.03;4345344;33;34329;-62
2023/11/23 05:43:45;;;;;;;12.13;6.35;;;;;;;24.05;36.70;100482.41;4333594;33;34806;-62
2023/11/23 05:46:13;;;;;;;10.63;5.18;;;;;;;24.04;36.02;100488.09;4333019;33;34776;-62
2023/11/23 05:48:41;;;;;;;8.18;5.70;;;;;;;24.00;36.42;100484.94;4332748;33;34006;-62
2023/11/23 05:51:09;;;;;;;9.02;5.32;;;;;;;23.98;36.67;100489.78;4332943;33;34544;-62
2023/11/23 05:53:39;;;;;;;9.00;5.30;;;;;;;23.95;36.83;100492.09;4346640;33;33908;-62
2023/11/23 05:56:07;;;;;;;9.98;5.47;;;;;;;23.92;36.90;100490.63;4347826;33;34288;-62
2023/11/23 05:58:34;;;;;;;8.65;5.10;;;;;;;23.89;36.92;100485.59;4347973;33;33646;-62
2023/11/23 06:01:02;;;;;;;11.05;4.70;;;;;;;23.86;36.98;100484.13;4347657;33;34479;-62
2023/11/23 06:03:40;;;;;;;10.45;5.00;;;;;;;23.85;36.99;100487.09;4347415;33;33566;-62
2023/11/23 06:06:08;;;;;;;10.00;5.55;;;;;;;23.82;37.05;100482.03;4347059;33;34027;-62
2023/11/23 06:08:36;;;;;;;9.88;5.68;;;;;;;23.81;37.06;100480.38;4332139;33;35030;-62
2023/11/23 06:11:04;;;;;;;9.55;4.95;;;;;;;23.79;37.12;100483.31;4345572;33;33284;-62
2023/11/23 06:13:31;;;;;;;12.90;5.62;;;;;;;23.79;37.10;100477.87;4339174;33;33488;-62
2023/11/23 06:15:59;;;;;;;8.25;4.78;;;;;;;23.77;37.11;100481.84;4340310;33;33736;-62
2023/11/23 06:21:30;;;;;;;8.40;4.53;;;;;;;23.75;37.04;100492.97;5063334;27;20079;-81
2023/11/23 06:24:12;;;;;;;7.32;4.75;;;;;;;23.74;37.02;100495.91;4747432;27;34205;31
2023/11/23 06:26:39;;;;;;;8.68;5.32;;;;;;;23.74;36.99;100490.47;4368817;32;34833;-80
2023/11/23 06:35:14;;;;;;;7.80;4.85;;;;;;;23.71;37.01;100491.72;4491560;27;20111;-74
2023/11/23 06:37:42;;;;;;;13.07;5.18;;;;;;;23.68;37.01;100486.69;4361191;32;35375;-90
2023/11/23 06:40:24;;;;;;;8.43;5.10;;;;;;;23.68;37.04;100486.69;4774855;27;35426;-92
2023/11/23 06:42:51;;;;;;;10.13;5.20;;;;;;;23.68;37.01;100482.06;4373662;32;34263;-88
2023/11/23 06:45:19;;;;;;;8.82;5.12;;;;;;;23.67;37.03;100480.41;4375980;32;35405;-85
2023/11/23 06:47:47;;;;;;;7.22;4.60;;;;;;;23.67;37.02;100472.22;4375839;32;34605;-81
2023/11/23 06:50:14;;;;;;;8.18;4.85;;;;;;;23.66;37.00;100470.56;4376220;32;33588;-92
2023/11/23 06:52:42;;;;;;;8.95;4.65;;;;;;;23.66;36.97;100461.53;4375328;32;35241;-89
2023/11/23 06:55:09;;;;;;;7.53;4.85;;;;;;;23.66;37.01;100469.72;4374610;32;35248;-75
2023/11/23 06:57:39;;;;;;;9.02;4.80;;;;;;;23.65;36.94;100466.16;4376151;32;35376;-83
2023/11/23 07:00:16;;;;;;;9.50;4.57;;;;;;;23.64;36.93;100469.94;4375477;32;35575;-95
2023/11/23 07:02:44;;;;;;;8.23;4.93;;;;;;;23.64;36.92;100469.06;4375259;32;34064;-82
2023/11/23 07:11:32;;;;;;;7.53;4.78;;;;;;;23.63;36.95;100451.03;5150170;27;20039;-75
2023/11/23 07:17:04;;;;;;;8.18;4.60;;;;;;;23.60;36.94;100467.81;4570398;27;20120;-55
2023/11/23 07:19:31;;;;;;;9.75;4.43;;;;;;;23.58;37.04;100469.91;4375968;32;33707;-52
2023/11/23 07:21:59;;;;;;;9.10;4.72;;;;;;;23.57;37.13;100471.78;4376895;32;35116;-53
2023/11/23 07:24:26;;;;;;;8.07;4.85;;;;;;;23.56;37.14;100472.84;4376836;32;33524;-52
2023/11/23 07:26:54;;;;;;;8.70;5.15;;;;;;;23.55;37.17;100465.72;4376942;32;33783;-50
2023/11/23 07:29:22;;;;;;;6.72;4.60;;;;;;;23.55;37.25;100465.72;4376920;32;34205;-51
2023/11/23 07:31:51;;;;;;;9.00;4.90;;;;;;;23.56;37.15;100463.84;4376764;32;34912;-51
2023/11/23 07:34:19;;;;;;;6.37;4.18;;;;;;;23.55;37.16;100473.91;4377139;32;33702;-47
2023/11/23 07:36:46;;;;;;;7.85;4.55;;;;;;;23.56;37.17;100472.84;4377026;32;34218;-48
2023/11/23 07:39:16;;;;;;;7.37;4.43;;;;;;;23.57;37.16;100468.22;4376682;32;33827;-48
2023/11/23 07:41:44;;;;;;;9.25;4.70;;;;;;;23.56;37.17;100472.84;4376876;32;33966;-51
2023/11/23 07:44:12;;;;;;;6.57;4.15;;;;;;;23.57;37.18;100469.06;4376803;32;33577;-49
2023/11/23 07:46:40;;;;;;;6.82;4.50;;;;;;;23.56;37.25;100461.94;4376697;32;34029;-50
2023/11/23 07:49:07;;;;;;;6.97;4.78;;;;;;;23.57;37.17;100462.78;4373411;32;109068;-47
2023/11/23 07:51:35;;;;;;;7.00;4.47;;;;;;;23.56;37.14;100452.94;4376742;32;35110;-53
2023/11/23 07:54:02;;;;;;;7.07;4.60;;;;;;;23.57;37.14;100454.59;4376571;32;33527;-54
2023/11/23 07:56:32;;;;;;;6.93;4.50;;;;;;;23.55;37.17;100441.22;4376674;32;33583;-54
2023/11/23 07:58:59;;;;;;;7.90;4.65;;;;;;;23.54;37.17;100442.22;4376761;32;33896;-47
2023/11/23 08:01:26;;;;;;;8.35;4.65;;;;;;;23.56;37.20;100428.44;4376522;32;33997;-50
2023/11/23 08:03:56;;;;;;;7.47;4.25;;;;;;;23.56;37.16;100431.97;4376667;32;34541;-48
2023/11/23 08:06:24;;;;;;;7.22;4.65;;;;;;;23.56;37.14;100422.97;4376494;32;34156;-47
2023/11/23 08:08:52;;;;;;;7.65;4.37;;;;;;;23.56;37.12;100429.25;4376371;32;34140;-49
2023/11/23 08:11:21;;;;;;;7.95;4.37;;;;;;;23.56;37.16;100437.44;4376574;32;34184;-50
2023/11/23 08:13:49;;;;;;;6.45;4.05;;;;;;;23.54;37.15;100434.06;4371408;32;33673;-51
2023/11/23 08:16:18;;;;;;;6.70;4.30;;;;;;;23.54;37.14;100434.06;4361310;32;34818;-49
2023/11/23 08:18:46;;;;;;;8.13;4.47;;;;;;;23.56;37.13;100439.31;4361528;32;34104;-50
2023/11/23 08:21:16;;;;;;;;;;;;;;;23.56;37.21;100440.16;4361902;32;34256;-54
2023/11/23 08:23:44;;;;;;;6.43;4.10;;;;;;;23.66;37.03;100437.84;4361582;32;33566;-50
2023/11/23 08:26:12;;;;;;;6.70;4.20;;;;;;;23.58;37.13;100421.69;4361456;32;33682;-49
2023/11/23 08:28:39;;;;;;;8.45;4.57;;;;;;;23.54;37.23;100409.53;4361355;32;34775;-48
2023/11/23 08:31:07;;;;;;;8.50;4.50;;;;;;;23.56;37.23;100414.81;4361395;32;34101;-49
2023/11/23 08:33:34;;;;;;;8.82;4.55;;;;;;;23.56;37.32;100418.38;4361248;32;33814;-47
2023/11/23 08:36:02;;;;;;;9.32;4.53;;;;;;;23.54;37.26;100409.53;4361132;32;33926;-49
2023/11/23 08:38:30;;;;;;;7.03;4.40;;;;;;;23.55;37.29;100410.37;4361505;32;34052;-49
2023/11/23 08:40:57;;;;;;;8.38;4.53;;;;;;;23.55;37.31;100410.37;4361256;32;34687;-48
2023/11/23 08:43:25;;;;;;;8.43;4.82;;;;;;;23.56;37.29;100412.06;4361271;32;33621;-47
2023/11/23 08:45:52;;;;;;;7.62;4.90;;;;;;;23.54;37.19;100406.81;4361496;32;33675;-47
2023/11/23 08:48:22;;;;;;;10.27;4.72;;;;;;;23.54;37.16;100406.81;4361129;32;33576;-52
2023/11/23 08:50:50;;;;;;;6.75;4.15;;;;;;;23.55;37.15;100405.81;4360941;32;34380;-47
2023/11/23 08:53:17;;;;;;;6.93;4.97;;;;;;;23.55;37.18;100413.09;4361166;32;34570;-60
2023/11/23 08:55:48;;;;;;;15.38;10.57;;;;;;;23.56;36.95;100425.69;4361030;32;35477;-60
2023/11/23 08:58:15;;;;;;;17.40;13.77;;;;;;;23.49;32.39;100413.97;4361078;32;33745;-62
2023/11/23 09:00:43;;;;;;;16.70;12.90;;;;;;;23.28;29.06;100410.44;4360954;32;34337;-58
2023/11/23 09:03:11;;;;;;;16.40;11.40;;;;;;;23.13;30.43;100407.09;4361125;32;33491;-59
2023/11/23 09:05:39;;;;;;;17.25;11.10;;;;;;;23.08;32.55;100409.59;4360787;32;34750;-60
2023/11/23 09:08:07;;;;;;;14.15;10.30;;;;;;;23.11;33.63;100409.19;4361103;32;34137;-60
2023/11/23 09:10:34;;;;;;;11.45;8.13;;;;;;;23.14;33.57;100412.34;4360884;32;33542;-60
2023/11/23 09:13:02;;;;;;;12.00;8.52;;;;;;;23.20;33.52;100412.53;4360817;32;33850;-58
2023/11/23 09:15:30;;;;;;;12.68;7.82;;;;;;;23.27;33.59;100411.50;4375731;32;34099;-60
2023/11/23 09:17:57;;;;;;;11.25;6.95;;;;;;;23.40;33.70;100413.34;4375841;32;34085;-59
2023/11/23 09:20:25;;;;;;;10.65;7.03;;;;;;;23.55;33.82;100403.06;4377477;32;34700;-59
2023/11/23 09:22:52;;;;;;;9.68;6.78;;;;;;;23.72;33.86;100408.91;4378013;32;33349;-60
2023/11/23 09:25:20;;;;;;;9.38;6.80;;;;;;;23.88;33.91;100402.19;4378068;32;33974;-59
2023/11/23 09:27:49;;;;;;;13.65;6.57;;;;;;;24.02;33.93;100398.34;4377549;32;34123;-60
2023/11/23 09:30:17;;;;;;;9.67;6.17;;;;;;;24.17;33.94;100392.63;4377667;32;34354;-60
2023/11/23 09:32:45;;;;;;;10.60;5.97;;;;;;;24.32;33.92;100389.59;4373161;32;34644;-60
2023/11/23 09:35:12;;;;;;;9.25;5.62;;;;;;;24.44;33.94;100390.63;4367107;32;34911;-60
2023/11/23 09:37:40;;;;;;;7.87;5.62;;;;;;;24.57;33.91;100387.78;4362798;32;34149;-60
2023/11/23 09:40:09;;;;;;;8.68;5.72;;;;;;;24.68;33.90;100381.62;4362803;32;34921;-60
2023/11/23 09:42:38;;;;;;;11.12;6.12;;;;;;;24.82;33.87;100384.28;4362546;32;34449;-60
2023/11/23 09:45:07;;;;;;;9.37;5.37;;;;;;;24.94;33.82;100388.78;4362897;32;34020;-60
2023/11/23 09:47:35;;;;;;;7.97;5.35;;;;;;;25.05;33.81;100384.50;4349192;32;34241;-60
2023/11/23 09:50:03;;;;;;;7.22;5.32;;;;;;;25.15;33.80;100384.84;4362691;32;33385;-60
2023/11/23 09:52:31;;;;;;;7.97;5.32;;;;;;;25.24;33.78;100385.41;4337016;32;34499;-59
2023/11/23 09:54:59;;;;;;;7.85;5.70;;;;;;;25.33;33.74;100372.31;4362374;32;33815;-60
2023/11/23 09:57:27;;;;;;;6.68;4.80;;;;;;;25.42;33.73;100374.50;4349424;32;34508;-61
2023/11/23 09:59:55;;;;;;;6.82;5.22;;;;;;;25.52;33.69;100363.06;4349121;32;34146;-60
2023/11/23 10:02:30;;;;;;;9.20;5.70;;;;;;;25.60;33.70;100368.22;4362415;32;33807;-60
2023/11/23 10:05:00;;;;;;;7.93;5.20;;;;;;;25.69;33.65;100364.12;4362531;32;33483;-60
2023/11/23 10:07:27;;;;;;;7.28;5.37;;;;;;;25.79;33.62;100360.06;4362480;32;34056;-60
2023/11/23 10:09:55;;;;;;;7.03;4.47;;;;;;;25.86;33.60;100347.97;4336783;32;34323;-60
2023/11/23 10:12:25;;;;;;;7.35;4.90;;;;;;;25.94;33.56;100336.72;4362524;32;33796;-60
2023/11/23 10:14:53;;;;;;;7.37;4.72;;;;;;;26.01;33.52;100328.41;4374136;32;34031;-60
2023/11/23 10:17:20;;;;;;;6.65;4.40;;;;;;;26.11;33.48;100333.34;4377117;32;34021;-60
2023/11/23 10:19:49;;;;;;;7.18;4.85;;;;;;;26.16;33.50;100325.25;4377427;32;34224;-60
2023/11/23 10:22:17;;;;;;;7.07;4.62;;;;;;;26.20;33.49;100326.47;4377294;32;33561;-60
2023/11/23 10:24:46;;;;;;;7.07;4.70;;;;;;;26.24;33.48;100322.22;4363883;32;33101;-60
2023/11/23 10:27:19;;;;;;;6.67;4.13;;;;;;;26.29;33.47;100318.78;4377641;32;33993;-60
2023/11/23 10:29:46;;;;;;;7.80;4.90;;;;;;;26.34;33.47;100324.38;4376555;32;34273;-60
2023/11/23 10:32:17;;;;;;;7.65;4.75;;;;;;;26.40;33.45;100309.78;4377016;32;33479;-60
2023/11/23 10:34:45;;;;;;;6.75;4.40;;;;;;;26.46;33.45;100303.41;4363645;32;33670;-60
2023/11/23 10:37:16;;;;;;;6.80;5.03;;;;;;;26.51;33.45;100292.56;4351444;32;33686;-60
2023/11/23 10:39:44;;;;;;;6.97;4.45;;;;;;;26.56;33.43;100289.97;4377166;32;34032;-60
2023/11/23 10:42:12;;;;;;;6.68;4.25;;;;;;;26.64;33.39;100286.06;4377276;32;33821;-60
2023/11/23 10:44:40;;;;;;;7.20;4.68;;;;;;;26.68;33.37;100273.56;4377095;32;33941;-60
2023/11/23 10:47:10;;;;;;;7.00;4.35;;;;;;;26.70;33.36;100260.47;4377142;32;34906;-60
2023/11/23 10:49:37;;;;;;;7.07;4.70;;;;;;;26.75;33.32;100257.03;4351752;32;34862;-60
2023/11/23 10:52:06;;;;;;;7.78;4.53;;;;;;;26.77;33.30;100246.69;4363709;32;33517;-60
2023/11/23 10:54:36;;;;;;;5.95;4.30;;;;;;;26.77;33.31;100244.78;4363716;32;33969;-60
2023/11/23 10:57:05;;;;;;;6.35;4.12;;;;;;;26.78;33.31;100240.13;4377018;32;34142;-60
2023/11/23 10:59:32;;;;;;;5.57;4.18;;;;;;;26.77;33.31;100230.25;4363787;32;35092;-61
2023/11/23 11:02:01;;;;;;;6.87;4.60;;;;;;;26.74;33.35;100237.03;4351357;32;34626;-60
2023/11/23 11:04:29;;;;;;;6.50;4.20;;;;;;;26.73;33.37;100232.63;4361334;32;34012;-56
2023/11/23 11:06:56;;;;;;;6.45;3.80;;;;;;;26.69;33.41;100228.69;4374844;32;33647;-59
2023/11/23 11:09:25;;;;;;;5.93;4.07;;;;;;;26.66;33.45;100230.00;4377304;32;34873;-59
2023/11/23 11:12:00;;;;;;;7.18;4.05;;;;;;;26.63;33.51;100215.97;4377289;32;33747;-59
2023/11/23 11:14:35;;;;;;;6.28;4.37;;;;;;;26.59;33.55;100218.34;4376922;32;34793;-61
2023/11/23 11:17:04;;;;;;;6.25;3.95;;;;;;;26.56;33.60;100209.78;4376757;32;34870;-61
2023/11/23 11:19:45;;;;;;;4.97;3.45;;;;;;;26.52;33.67;100217.59;4377077;32;34020;-61
2023/11/23 11:22:13;;;;;;;6.78;4.50;;;;;;;26.49;33.74;100214.50;4377088;32;33784;-61
2023/11/23 11:24:41;;;;;;;6.57;4.00;;;;;;;26.42;33.83;100204.50;4376480;32;34647;-61
2023/11/23 11:27:15;;;;;;;5.93;3.87;;;;;;;26.38;33.88;100191.53;4377203;32;34209;-61
2023/11/23 11:29:50;;;;;;;5.53;3.60;;;;;;;26.33;33.94;100188.66;4376839;32;34358;-61
2023/11/23 11:32:22;;;;;;;6.37;3.97;;;;;;;26.29;33.96;100188.28;4366064;32;34386;-63
2023/11/23 11:34:59;;;;;;;6.47;3.92;;;;;;;26.24;34.04;100187.34;4373878;32;34039;-62
2023/11/23 11:37:27;;;;;;;6.35;3.85;;;;;;;26.21;34.10;100177.72;4363016;32;34227;-61
2023/11/23 11:39:55;;;;;;;5.97;4.30;;;;;;;26.15;34.19;100170.44;4348883;32;34878;-61
2023/11/23 11:42:23;;;;;;;6.18;3.83;;;;;;;26.11;34.30;100164.62;4347826;32;33442;-61
2023/11/23 11:44:53;;;;;;;6.65;4.00;;;;;;;26.07;34.37;100160.69;4362053;32;33995;-62